sensor_id;sensor_type;location;lat;lon;timestamp;temperature;humidity
76470;DHT22;65305;52.870;13.660;2023-04-19T00:01:56;8.90;68.70
76470;DHT22;65305;52.870;13.660;2023-04-19T00:04:23;8.90;68.50
76470;DHT22;65305;52.870;13.660;2023-04-19T00:06:50;8.80;68.70
76470;DHT22;65305;52.870;13.660;2023-04-19T00:09:17;8.90;68.70
76470;DHT22;65305;52.870;13.660;2023-04-19T00:11:44;8.80;68.70
76470;DHT22;65305;52.870;13.660;2023-04-19T00:14:10;8.80;68.70
76470;DHT22;65305;52.870;13.660;2023-04-19T00:16:37;8.80;68.60
76470;DHT22;65305;52.870;13.660;2023-04-19T00:19:03;8.80;68.70
76470;DHT22;65305;52.870;13.660;2023-04-19T00:21:30;8.80;68.80
76470;DHT22;65305;52.870;13.660;2023-04-19T00:23:56;8.90;68.70
76470;DHT22;65305;52.870;13.660;2023-04-19T00:26:23;8.90;68.70
76470;DHT22;65305;52.870;13.660;2023-04-19T00:28:49;8.80;68.30
76470;DHT22;65305;52.870;13.660;2023-04-19T00:31:16;8.80;68.50
76470;DHT22;65305;52.870;13.660;2023-04-19T00:33:42;8.80;68.30
76470;DHT22;65305;52.870;13.660;2023-04-19T00:36:09;8.80;68.60
76470;DHT22;65305;52.870;13.660;2023-04-19T00:38:35;8.80;68.70
76470;DHT22;65305;52.870;13.660;2023-04-19T00:41:02;8.80;68.70
76470;DHT22;65305;52.870;13.660;2023-04-19T00:43:28;8.80;68.70
76470;DHT22;65305;52.870;13.660;2023-04-19T00:45:55;8.80;68.70
76470;DHT22;65305;52.870;13.660;2023-04-19T00:48:21;8.80;68.60
76470;DHT22;65305;52.870;13.660;2023-04-19T00:50:49;8.80;68.70
76470;DHT22;65305;52.870;13.660;2023-04-19T00:53:15;8.80;68.60
76470;DHT22;65305;52.870;13.660;2023-04-19T00:55:42;8.80;68.70
76470;DHT22;65305;52.870;13.660;2023-04-19T00:58:08;8.80;68.70
76470;DHT22;65305;52.870;13.660;2023-04-19T01:00:35;8.80;68.70
76470;DHT22;65305;52.870;13.660;2023-04-19T01:03:02;8.80;68.70
76470;DHT22;65305;52.870;13.660;2023-04-19T01:05:29;8.80;68.60
76470;DHT22;65305;52.870;13.660;2023-04-19T01:07:55;8.80;68.70
76470;DHT22;65305;52.870;13.660;2023-04-19T01:10:22;8.80;68.40
76470;DHT22;65305;52.870;13.660;2023-04-19T01:12:48;8.80;68.70
76470;DHT22;65305;52.870;13.660;2023-04-19T01:15:15;8.80;68.60
76470;DHT22;65305;52.870;13.660;2023-04-19T01:17:41;8.80;68.60
76470;DHT22;65305;52.870;13.660;2023-04-19T01:20:08;8.80;68.70
76470;DHT22;65305;52.870;13.660;2023-04-19T01:22:58;8.80;68.70
76470;DHT22;65305;52.870;13.660;2023-04-19T01:25:25;8.80;68.70
76470;DHT22;65305;52.870;13.660;2023-04-19T01:27:51;8.80;68.70
76470;DHT22;65305;52.870;13.660;2023-04-19T01:30:18;8.80;68.70
76470;DHT22;65305;52.870;13.660;2023-04-19T01:32:44;8.80;68.60
76470;DHT22;65305;52.870;13.660;2023-04-19T01:35:11;8.80;68.40
76470;DHT22;65305;52.870;13.660;2023-04-19T01:37:37;8.80;68.60
76470;DHT22;65305;52.870;13.660;2023-04-19T01:40:04;8.80;68.70
76470;DHT22;65305;52.870;13.660;2023-04-19T01:42:30;8.80;68.60
76470;DHT22;65305;52.870;13.660;2023-04-19T01:44:57;8.80;68.60
76470;DHT22;65305;52.870;13.660;2023-04-19T01:47:24;8.80;68.60
76470;DHT22;65305;52.870;13.660;2023-04-19T01:49:50;8.70;68.50
76470;DHT22;65305;52.870;13.660;2023-04-19T01:52:17;8.80;68.50
76470;DHT22;65305;52.870;13.660;2023-04-19T01:54:43;8.80;68.60
76470;DHT22;65305;52.870;13.660;2023-04-19T01:57:10;8.80;68.50
76470;DHT22;65305;52.870;13.660;2023-04-19T01:59:36;8.80;68.50
76470;DHT22;65305;52.870;13.660;2023-04-19T02:02:05;8.80;68.50
76470;DHT22;65305;52.870;13.660;2023-04-19T02:04:33;8.80;68.50
76470;DHT22;65305;52.870;13.660;2023-04-19T02:07:00;8.70;68.50
76470;DHT22;65305;52.870;13.660;2023-04-19T02:09:26;8.70;68.50
76470;DHT22;65305;52.870;13.660;2023-04-19T02:11:52;8.70;68.50
76470;DHT22;65305;52.870;13.660;2023-04-19T02:14:19;8.70;68.50
76470;DHT22;65305;52.870;13.660;2023-04-19T02:16:46;8.70;68.50
76470;DHT22;65305;52.870;13.660;2023-04-19T02:19:12;8.70;68.40
76470;DHT22;65305;52.870;13.660;2023-04-19T02:21:39;8.70;68.40
76470;DHT22;65305;52.870;13.660;2023-04-19T02:24:06;8.70;68.40
76470;DHT22;65305;52.870;13.660;2023-04-19T02:26:32;8.70;68.30
76470;DHT22;65305;52.870;13.660;2023-04-19T02:28:59;8.60;68.30
76470;DHT22;65305;52.870;13.660;2023-04-19T02:31:25;8.60;68.50
76470;DHT22;65305;52.870;13.660;2023-04-19T02:33:52;8.60;68.40
76470;DHT22;65305;52.870;13.660;2023-04-19T02:36:18;8.60;68.50
76470;DHT22;65305;52.870;13.660;2023-04-19T02:38:45;8.60;68.40
76470;DHT22;65305;52.870;13.660;2023-04-19T02:41:11;8.60;68.40
76470;DHT22;65305;52.870;13.660;2023-04-19T02:43:38;8.60;68.40
76470;DHT22;65305;52.870;13.660;2023-04-19T02:46:05;8.60;68.40
76470;DHT22;65305;52.870;13.660;2023-04-19T02:48:32;8.60;68.30
76470;DHT22;65305;52.870;13.660;2023-04-19T02:50:58;8.60;68.40
76470;DHT22;65305;52.870;13.660;2023-04-19T02:53:25;8.60;68.30
76470;DHT22;65305;52.870;13.660;2023-04-19T02:55:51;8.60;68.30
76470;DHT22;65305;52.870;13.660;2023-04-19T02:58:18;8.60;68.30
76470;DHT22;65305;52.870;13.660;2023-04-19T03:00:44;8.60;68.30
76470;DHT22;65305;52.870;13.660;2023-04-19T03:03:11;8.60;68.30
76470;DHT22;65305;52.870;13.660;2023-04-19T03:05:37;8.60;68.20
76470;DHT22;65305;52.870;13.660;2023-04-19T03:08:04;8.60;68.20
76470;DHT22;65305;52.870;13.660;2023-04-19T03:10:31;8.60;68.20
76470;DHT22;65305;52.870;13.660;2023-04-19T03:12:58;8.60;68.20
76470;DHT22;65305;52.870;13.660;2023-04-19T03:15:25;8.60;68.20
76470;DHT22;65305;52.870;13.660;2023-04-19T03:17:51;8.60;68.20
76470;DHT22;65305;52.870;13.660;2023-04-19T03:20:18;8.60;68.20
76470;DHT22;65305;52.870;13.660;2023-04-19T03:22:45;8.60;68.00
76470;DHT22;65305;52.870;13.660;2023-04-19T03:25:12;8.60;68.20
76470;DHT22;65305;52.870;13.660;2023-04-19T03:27:39;8.60;68.20
76470;DHT22;65305;52.870;13.660;2023-04-19T03:30:05;8.60;68.20
76470;DHT22;65305;52.870;13.660;2023-04-19T03:32:32;8.60;68.20
76470;DHT22;65305;52.870;13.660;2023-04-19T03:34:58;8.50;68.20
76470;DHT22;65305;52.870;13.660;2023-04-19T03:37:25;8.50;68.10
76470;DHT22;65305;52.870;13.660;2023-04-19T03:39:51;8.50;68.20
76470;DHT22;65305;52.870;13.660;2023-04-19T03:42:18;8.50;68.20
76470;DHT22;65305;52.870;13.660;2023-04-19T03:44:44;8.60;68.20
76470;DHT22;65305;52.870;13.660;2023-04-19T03:47:11;8.60;68.10
76470;DHT22;65305;52.870;13.660;2023-04-19T03:49:37;8.50;68.30
76470;DHT22;65305;52.870;13.660;2023-04-19T03:52:04;8.50;68.30
76470;DHT22;65305;52.870;13.660;2023-04-19T03:54:30;8.50;68.20
76470;DHT22;65305;52.870;13.660;2023-04-19T03:56:57;8.50;68.20
76470;DHT22;65305;52.870;13.660;2023-04-19T03:59:24;8.50;68.20
76470;DHT22;65305;52.870;13.660;2023-04-19T04:01:50;8.50;68.20
76470;DHT22;65305;52.870;13.660;2023-04-19T04:04:17;8.50;68.20
76470;DHT22;65305;52.870;13.660;2023-04-19T04:06:43;8.50;68.20
76470;DHT22;65305;52.870;13.660;2023-04-19T04:09:10;8.50;68.30
76470;DHT22;65305;52.870;13.660;2023-04-19T04:11:36;8.50;68.30
76470;DHT22;65305;52.870;13.660;2023-04-19T04:14:03;8.50;68.30
76470;DHT22;65305;52.870;13.660;2023-04-19T04:16:29;8.50;68.20
76470;DHT22;65305;52.870;13.660;2023-04-19T04:18:56;8.50;68.20
76470;DHT22;65305;52.870;13.660;2023-04-19T04:21:22;8.50;68.20
76470;DHT22;65305;52.870;13.660;2023-04-19T04:23:49;8.50;68.30
76470;DHT22;65305;52.870;13.660;2023-04-19T04:26:17;8.50;68.20
76470;DHT22;65305;52.870;13.660;2023-04-19T04:28:44;8.50;68.20
76470;DHT22;65305;52.870;13.660;2023-04-19T04:31:11;8.50;68.20
76470;DHT22;65305;52.870;13.660;2023-04-19T04:33:38;8.50;68.30
76470;DHT22;65305;52.870;13.660;2023-04-19T04:36:04;8.50;68.20
76470;DHT22;65305;52.870;13.660;2023-04-19T04:38:31;8.50;68.20
76470;DHT22;65305;52.870;13.660;2023-04-19T04:40:58;8.40;68.00
76470;DHT22;65305;52.870;13.660;2023-04-19T04:43:24;8.50;68.10
76470;DHT22;65305;52.870;13.660;2023-04-19T04:45:54;8.50;68.10
76470;DHT22;65305;52.870;13.660;2023-04-19T04:48:22;8.50;68.10
76470;DHT22;65305;52.870;13.660;2023-04-19T04:50:49;8.40;68.10
76470;DHT22;65305;52.870;13.660;2023-04-19T04:53:15;8.40;68.00
76470;DHT22;65305;52.870;13.660;2023-04-19T04:55:42;8.40;68.00
76470;DHT22;65305;52.870;13.660;2023-04-19T04:58:08;8.40;68.10
76470;DHT22;65305;52.870;13.660;2023-04-19T05:00:35;8.40;68.00
76470;DHT22;65305;52.870;13.660;2023-04-19T05:03:01;8.40;68.10
76470;DHT22;65305;52.870;13.660;2023-04-19T05:05:28;8.40;68.00
76470;DHT22;65305;52.870;13.660;2023-04-19T05:07:54;8.40;68.10
76470;DHT22;65305;52.870;13.660;2023-04-19T05:10:21;8.40;68.00
76470;DHT22;65305;52.870;13.660;2023-04-19T05:12:47;8.40;68.00
76470;DHT22;65305;52.870;13.660;2023-04-19T05:15:14;8.40;68.00
76470;DHT22;65305;52.870;13.660;2023-04-19T05:17:41;8.40;67.80
76470;DHT22;65305;52.870;13.660;2023-04-19T05:20:08;8.40;67.90
76470;DHT22;65305;52.870;13.660;2023-04-19T05:22:34;8.40;67.90
76470;DHT22;65305;52.870;13.660;2023-04-19T05:25:01;8.40;67.80
76470;DHT22;65305;52.870;13.660;2023-04-19T05:27:27;8.40;67.90
76470;DHT22;65305;52.870;13.660;2023-04-19T05:29:54;8.40;67.80
76470;DHT22;65305;52.870;13.660;2023-04-19T05:32:21;8.40;67.80
76470;DHT22;65305;52.870;13.660;2023-04-19T05:34:47;8.30;67.80
76470;DHT22;65305;52.870;13.660;2023-04-19T05:37:14;8.40;67.80
76470;DHT22;65305;52.870;13.660;2023-04-19T05:39:40;8.40;67.80
76470;DHT22;65305;52.870;13.660;2023-04-19T05:42:07;8.30;67.80
76470;DHT22;65305;52.870;13.660;2023-04-19T05:44:33;8.40;67.80
76470;DHT22;65305;52.870;13.660;2023-04-19T05:47:00;8.30;67.80
76470;DHT22;65305;52.870;13.660;2023-04-19T05:49:26;8.40;67.60
76470;DHT22;65305;52.870;13.660;2023-04-19T05:51:53;8.40;67.70
76470;DHT22;65305;52.870;13.660;2023-04-19T05:54:21;8.30;67.70
76470;DHT22;65305;52.870;13.660;2023-04-19T05:56:48;8.30;67.60
76470;DHT22;65305;52.870;13.660;2023-04-19T05:59:15;8.30;67.60
76470;DHT22;65305;52.870;13.660;2023-04-19T06:01:42;8.30;67.50
76470;DHT22;65305;52.870;13.660;2023-04-19T06:04:08;8.30;67.50
76470;DHT22;65305;52.870;13.660;2023-04-19T06:06:34;8.30;67.50
76470;DHT22;65305;52.870;13.660;2023-04-19T06:09:02;8.30;67.50
76470;DHT22;65305;52.870;13.660;2023-04-19T06:11:29;8.30;67.50
76470;DHT22;65305;52.870;13.660;2023-04-19T06:13:56;8.30;67.50
76470;DHT22;65305;52.870;13.660;2023-04-19T06:16:22;8.30;67.30
76470;DHT22;65305;52.870;13.660;2023-04-19T06:18:49;8.30;67.40
76470;DHT22;65305;52.870;13.660;2023-04-19T06:21:15;8.30;67.40
76470;DHT22;65305;52.870;13.660;2023-04-19T06:23:41;8.30;67.30
76470;DHT22;65305;52.870;13.660;2023-04-19T06:26:08;8.30;67.30
76470;DHT22;65305;52.870;13.660;2023-04-19T06:28:34;8.30;67.30
76470;DHT22;65305;52.870;13.660;2023-04-19T06:31:01;8.30;67.30
76470;DHT22;65305;52.870;13.660;2023-04-19T06:33:27;8.30;67.30
76470;DHT22;65305;52.870;13.660;2023-04-19T06:35:53;8.30;67.30
76470;DHT22;65305;52.870;13.660;2023-04-19T06:38:20;8.30;67.30
76470;DHT22;65305;52.870;13.660;2023-04-19T06:40:46;8.30;67.30
76470;DHT22;65305;52.870;13.660;2023-04-19T06:43:13;8.30;67.20
76470;DHT22;65305;52.870;13.660;2023-04-19T06:45:40;8.30;67.20
76470;DHT22;65305;52.870;13.660;2023-04-19T06:48:06;8.30;67.10
76470;DHT22;65305;52.870;13.660;2023-04-19T06:50:32;8.30;67.10
76470;DHT22;65305;52.870;13.660;2023-04-19T06:52:59;8.30;67.20
76470;DHT22;65305;52.870;13.660;2023-04-19T06:55:25;8.30;67.20
76470;DHT22;65305;52.870;13.660;2023-04-19T06:57:51;8.30;67.20
76470;DHT22;65305;52.870;13.660;2023-04-19T07:00:17;8.30;67.10
76470;DHT22;65305;52.870;13.660;2023-04-19T07:02:44;8.30;67.10
76470;DHT22;65305;52.870;13.660;2023-04-19T07:05:10;8.30;67.00
76470;DHT22;65305;52.870;13.660;2023-04-19T07:07:37;8.30;67.00
76470;DHT22;65305;52.870;13.660;2023-04-19T07:10:07;8.30;66.90
76470;DHT22;65305;52.870;13.660;2023-04-19T07:12:33;8.30;66.90
76470;DHT22;65305;52.870;13.660;2023-04-19T07:15:00;8.20;66.90
76470;DHT22;65305;52.870;13.660;2023-04-19T07:17:26;8.30;66.90
76470;DHT22;65305;52.870;13.660;2023-04-19T07:19:53;8.30;66.80
76470;DHT22;65305;52.870;13.660;2023-04-19T07:22:19;8.20;66.90
76470;DHT22;65305;52.870;13.660;2023-04-19T07:24:47;8.30;66.80
76470;DHT22;65305;52.870;13.660;2023-04-19T07:27:13;8.30;66.70
76470;DHT22;65305;52.870;13.660;2023-04-19T07:29:41;8.20;66.60
76470;DHT22;65305;52.870;13.660;2023-04-19T07:32:07;8.20;66.70
76470;DHT22;65305;52.870;13.660;2023-04-19T07:34:36;8.30;66.70
76470;DHT22;65305;52.870;13.660;2023-04-19T07:37:03;8.30;66.60
76470;DHT22;65305;52.870;13.660;2023-04-19T07:39:30;8.30;66.70
76470;DHT22;65305;52.870;13.660;2023-04-19T07:41:56;8.30;66.70
76470;DHT22;65305;52.870;13.660;2023-04-19T07:44:23;8.30;66.80
76470;DHT22;65305;52.870;13.660;2023-04-19T07:46:49;8.30;66.70
76470;DHT22;65305;52.870;13.660;2023-04-19T07:49:16;8.30;66.70
76470;DHT22;65305;52.870;13.660;2023-04-19T07:51:42;8.30;66.80
76470;DHT22;65305;52.870;13.660;2023-04-19T07:54:09;8.20;66.80
76470;DHT22;65305;52.870;13.660;2023-04-19T07:56:36;8.30;66.70
76470;DHT22;65305;52.870;13.660;2023-04-19T07:59:02;8.30;66.80
76470;DHT22;65305;52.870;13.660;2023-04-19T08:01:29;8.30;66.80
76470;DHT22;65305;52.870;13.660;2023-04-19T08:03:56;8.30;66.80
76470;DHT22;65305;52.870;13.660;2023-04-19T08:06:22;8.30;66.80
76470;DHT22;65305;52.870;13.660;2023-04-19T08:08:49;8.30;66.70
76470;DHT22;65305;52.870;13.660;2023-04-19T08:11:15;8.30;66.80
76470;DHT22;65305;52.870;13.660;2023-04-19T08:13:42;8.30;66.80
76470;DHT22;65305;52.870;13.660;2023-04-19T08:16:09;8.30;66.80
76470;DHT22;65305;52.870;13.660;2023-04-19T08:18:35;8.30;66.80
76470;DHT22;65305;52.870;13.660;2023-04-19T08:21:02;8.30;67.00
76470;DHT22;65305;52.870;13.660;2023-04-19T08:23:28;8.30;66.90
76470;DHT22;65305;52.870;13.660;2023-04-19T08:25:55;8.30;66.70
76470;DHT22;65305;52.870;13.660;2023-04-19T08:28:21;8.30;66.80
76470;DHT22;65305;52.870;13.660;2023-04-19T08:30:48;8.30;66.70
76470;DHT22;65305;52.870;13.660;2023-04-19T08:33:15;8.30;66.70
76470;DHT22;65305;52.870;13.660;2023-04-19T08:35:41;8.30;66.80
76470;DHT22;65305;52.870;13.660;2023-04-19T08:38:10;8.30;66.50
76470;DHT22;65305;52.870;13.660;2023-04-19T08:40:40;8.30;66.60
76470;DHT22;65305;52.870;13.660;2023-04-19T08:43:09;8.30;66.60
76470;DHT22;65305;52.870;13.660;2023-04-19T08:45:36;8.30;66.60
76470;DHT22;65305;52.870;13.660;2023-04-19T08:48:03;8.30;66.50
76470;DHT22;65305;52.870;13.660;2023-04-19T08:50:30;8.30;66.40
76470;DHT22;65305;52.870;13.660;2023-04-19T08:52:57;8.30;66.40
76470;DHT22;65305;52.870;13.660;2023-04-19T08:55:24;8.30;66.50
76470;DHT22;65305;52.870;13.660;2023-04-19T08:57:50;8.30;66.40
76470;DHT22;65305;52.870;13.660;2023-04-19T09:00:17;8.30;66.50
76470;DHT22;65305;52.870;13.660;2023-04-19T09:02:45;8.30;66.40
76470;DHT22;65305;52.870;13.660;2023-04-19T09:05:13;8.30;66.30
76470;DHT22;65305;52.870;13.660;2023-04-19T09:07:40;8.30;66.00
76470;DHT22;65305;52.870;13.660;2023-04-19T09:10:08;8.30;66.20
76470;DHT22;65305;52.870;13.660;2023-04-19T09:12:35;8.40;66.20
76470;DHT22;65305;52.870;13.660;2023-04-19T09:15:02;8.30;66.30
76470;DHT22;65305;52.870;13.660;2023-04-19T09:17:29;8.40;66.20
76470;DHT22;65305;52.870;13.660;2023-04-19T09:19:56;8.30;66.10
76470;DHT22;65305;52.870;13.660;2023-04-19T09:22:23;8.40;66.20
76470;DHT22;65305;52.870;13.660;2023-04-19T09:24:50;8.40;66.20
76470;DHT22;65305;52.870;13.660;2023-04-19T09:30:03;8.40;66.10
76470;DHT22;65305;52.870;13.660;2023-04-19T09:32:43;8.40;66.20
76470;DHT22;65305;52.870;13.660;2023-04-19T09:35:10;8.40;66.10
76470;DHT22;65305;52.870;13.660;2023-04-19T09:37:37;8.40;66.00
76470;DHT22;65305;52.870;13.660;2023-04-19T09:40:24;8.40;66.10
76470;DHT22;65305;52.870;13.660;2023-04-19T09:42:52;8.40;66.00
76470;DHT22;65305;52.870;13.660;2023-04-19T09:45:19;8.40;66.10
76470;DHT22;65305;52.870;13.660;2023-04-19T09:47:50;8.40;65.80
76470;DHT22;65305;52.870;13.660;2023-04-19T09:50:25;8.40;65.80
76470;DHT22;65305;52.870;13.660;2023-04-19T09:52:52;8.40;66.00
76470;DHT22;65305;52.870;13.660;2023-04-19T09:55:18;8.40;65.80
76470;DHT22;65305;52.870;13.660;2023-04-19T09:57:46;8.40;66.00
76470;DHT22;65305;52.870;13.660;2023-04-19T10:00:12;8.40;65.90
76470;DHT22;65305;52.870;13.660;2023-04-19T10:02:40;8.40;65.90
76470;DHT22;65305;52.870;13.660;2023-04-19T10:05:07;8.40;65.90
76470;DHT22;65305;52.870;13.660;2023-04-19T10:07:35;8.40;65.80
76470;DHT22;65305;52.870;13.660;2023-04-19T10:10:02;8.40;65.80
76470;DHT22;65305;52.870;13.660;2023-04-19T10:12:28;8.50;65.80
76470;DHT22;65305;52.870;13.660;2023-04-19T10:14:56;8.50;65.70
76470;DHT22;65305;52.870;13.660;2023-04-19T10:17:22;8.40;65.70
76470;DHT22;65305;52.870;13.660;2023-04-19T10:19:56;8.50;65.70
76470;DHT22;65305;52.870;13.660;2023-04-19T10:22:23;8.50;65.60
76470;DHT22;65305;52.870;13.660;2023-04-19T10:27:36;8.50;65.80
76470;DHT22;65305;52.870;13.660;2023-04-19T10:30:02;8.50;65.80
76470;DHT22;65305;52.870;13.660;2023-04-19T10:32:37;8.50;65.80
76470;DHT22;65305;52.870;13.660;2023-04-19T10:43:13;8.50;65.80
76470;DHT22;65305;52.870;13.660;2023-04-19T10:45:40;8.50;65.70
76470;DHT22;65305;52.870;13.660;2023-04-19T10:48:07;8.50;65.80
76470;DHT22;65305;52.870;13.660;2023-04-19T10:53:49;8.50;65.60
76470;DHT22;65305;52.870;13.660;2023-04-19T11:01:37;8.50;65.70
76470;DHT22;65305;52.870;13.660;2023-04-19T11:04:10;8.50;65.60
76470;DHT22;65305;52.870;13.660;2023-04-19T11:06:39;8.50;65.70
76470;DHT22;65305;52.870;13.660;2023-04-19T11:09:25;8.50;65.70
76470;DHT22;65305;52.870;13.660;2023-04-19T11:11:52;8.50;65.80
76470;DHT22;65305;52.870;13.660;2023-04-19T11:14:19;8.50;65.70
76470;DHT22;65305;52.870;13.660;2023-04-19T11:16:46;8.50;65.80
76470;DHT22;65305;52.870;13.660;2023-04-19T11:19:16;8.50;65.80
76470;DHT22;65305;52.870;13.660;2023-04-19T11:21:46;8.50;65.70
76470;DHT22;65305;52.870;13.660;2023-04-19T11:24:13;8.50;65.80
76470;DHT22;65305;52.870;13.660;2023-04-19T11:26:46;8.50;65.80
76470;DHT22;65305;52.870;13.660;2023-04-19T11:29:16;8.50;65.80
76470;DHT22;65305;52.870;13.660;2023-04-19T11:31:45;8.50;65.70
76470;DHT22;65305;52.870;13.660;2023-04-19T11:34:11;8.60;65.70
76470;DHT22;65305;52.870;13.660;2023-04-19T11:36:48;8.60;65.70
76470;DHT22;65305;52.870;13.660;2023-04-19T11:39:14;8.60;65.60
76470;DHT22;65305;52.870;13.660;2023-04-19T11:41:41;8.60;65.60
76470;DHT22;65305;52.870;13.660;2023-04-19T11:44:17;8.50;65.60
76470;DHT22;65305;52.870;13.660;2023-04-19T11:46:58;8.60;65.70
76470;DHT22;65305;52.870;13.660;2023-04-19T11:49:27;8.60;65.40
76470;DHT22;65305;52.870;13.660;2023-04-19T11:51:58;8.60;65.40
76470;DHT22;65305;52.870;13.660;2023-04-19T11:54:25;8.60;65.40
76470;DHT22;65305;52.870;13.660;2023-04-19T11:57:07;8.60;65.40
76470;DHT22;65305;52.870;13.660;2023-04-19T11:59:34;8.60;65.30
76470;DHT22;65305;52.870;13.660;2023-04-19T12:02:05;8.60;65.20
76470;DHT22;65305;52.870;13.660;2023-04-19T12:04:31;8.60;65.20
76470;DHT22;65305;52.870;13.660;2023-04-19T12:06:58;8.60;65.20
76470;DHT22;65305;52.870;13.660;2023-04-19T12:09:25;8.60;65.30
76470;DHT22;65305;52.870;13.660;2023-04-19T12:11:51;8.60;65.20
76470;DHT22;65305;52.870;13.660;2023-04-19T12:14:18;8.60;65.30
76470;DHT22;65305;52.870;13.660;2023-04-19T12:17:06;8.60;65.30
76470;DHT22;65305;52.870;13.660;2023-04-19T12:19:42;8.60;65.10
76470;DHT22;65305;52.870;13.660;2023-04-19T12:22:10;8.60;65.00
76470;DHT22;65305;52.870;13.660;2023-04-19T12:24:37;8.60;64.90
76470;DHT22;65305;52.870;13.660;2023-04-19T12:27:04;8.60;64.80
76470;DHT22;65305;52.870;13.660;2023-04-19T12:29:31;8.60;64.90
76470;DHT22;65305;52.870;13.660;2023-04-19T12:31:59;8.60;65.00
76470;DHT22;65305;52.870;13.660;2023-04-19T12:34:26;8.60;65.10
76470;DHT22;65305;52.870;13.660;2023-04-19T12:36:52;8.60;65.10
76470;DHT22;65305;52.870;13.660;2023-04-19T12:39:19;8.60;65.00
76470;DHT22;65305;52.870;13.660;2023-04-19T12:41:46;8.60;65.00
76470;DHT22;65305;52.870;13.660;2023-04-19T12:44:14;8.60;65.00
76470;DHT22;65305;52.870;13.660;2023-04-19T12:46:40;8.60;64.90
76470;DHT22;65305;52.870;13.660;2023-04-19T12:49:07;8.60;64.80
76470;DHT22;65305;52.870;13.660;2023-04-19T12:51:34;8.60;64.60
76470;DHT22;65305;52.870;13.660;2023-04-19T12:54:01;8.60;64.60
76470;DHT22;65305;52.870;13.660;2023-04-19T12:56:27;8.60;64.70
76470;DHT22;65305;52.870;13.660;2023-04-19T12:58:54;8.60;64.60
76470;DHT22;65305;52.870;13.660;2023-04-19T13:01:20;8.60;64.60
76470;DHT22;65305;52.870;13.660;2023-04-19T13:03:47;8.60;64.70
76470;DHT22;65305;52.870;13.660;2023-04-19T13:06:13;8.60;64.60
76470;DHT22;65305;52.870;13.660;2023-04-19T13:08:41;8.60;64.40
76470;DHT22;65305;52.870;13.660;2023-04-19T13:11:08;8.60;64.60
76470;DHT22;65305;52.870;13.660;2023-04-19T13:13:34;8.60;64.60
76470;DHT22;65305;52.870;13.660;2023-04-19T13:16:01;8.60;64.50
76470;DHT22;65305;52.870;13.660;2023-04-19T13:18:27;8.60;64.40
76470;DHT22;65305;52.870;13.660;2023-04-19T13:20:54;8.60;64.40
76470;DHT22;65305;52.870;13.660;2023-04-19T13:23:20;8.60;64.40
76470;DHT22;65305;52.870;13.660;2023-04-19T13:25:47;8.60;64.30
76470;DHT22;65305;52.870;13.660;2023-04-19T13:28:13;8.60;64.30
76470;DHT22;65305;52.870;13.660;2023-04-19T13:30:40;8.60;64.30
76470;DHT22;65305;52.870;13.660;2023-04-19T13:33:06;8.60;64.30
76470;DHT22;65305;52.870;13.660;2023-04-19T13:35:33;8.60;64.30
76470;DHT22;65305;52.870;13.660;2023-04-19T13:37:59;8.60;64.50
76470;DHT22;65305;52.870;13.660;2023-04-19T13:40:26;8.60;64.40
76470;DHT22;65305;52.870;13.660;2023-04-19T13:42:53;8.70;64.40
76470;DHT22;65305;52.870;13.660;2023-04-19T13:45:21;8.70;64.40
76470;DHT22;65305;52.870;13.660;2023-04-19T13:47:48;8.70;64.60
76470;DHT22;65305;52.870;13.660;2023-04-19T13:50:14;8.70;64.40
76470;DHT22;65305;52.870;13.660;2023-04-19T13:52:41;8.70;64.60
76470;DHT22;65305;52.870;13.660;2023-04-19T13:55:08;8.60;64.50
76470;DHT22;65305;52.870;13.660;2023-04-19T13:57:35;8.70;64.30
76470;DHT22;65305;52.870;13.660;2023-04-19T14:00:02;8.70;64.50
76470;DHT22;65305;52.870;13.660;2023-04-19T14:02:29;8.70;64.30
76470;DHT22;65305;52.870;13.660;2023-04-19T14:04:55;8.70;64.40
76470;DHT22;65305;52.870;13.660;2023-04-19T14:07:23;8.70;64.50
76470;DHT22;65305;52.870;13.660;2023-04-19T14:09:50;8.70;64.30
76470;DHT22;65305;52.870;13.660;2023-04-19T14:12:17;8.70;64.50
76470;DHT22;65305;52.870;13.660;2023-04-19T14:14:43;8.70;64.40
76470;DHT22;65305;52.870;13.660;2023-04-19T14:17:10;8.70;64.30
76470;DHT22;65305;52.870;13.660;2023-04-19T14:19:36;8.70;64.40
76470;DHT22;65305;52.870;13.660;2023-04-19T14:22:03;8.70;64.30
76470;DHT22;65305;52.870;13.660;2023-04-19T14:24:29;8.70;64.30
76470;DHT22;65305;52.870;13.660;2023-04-19T14:26:56;8.70;64.30
76470;DHT22;65305;52.870;13.660;2023-04-19T14:29:23;8.70;64.20
76470;DHT22;65305;52.870;13.660;2023-04-19T14:31:49;8.70;64.10
76470;DHT22;65305;52.870;13.660;2023-04-19T14:34:16;8.70;64.30
76470;DHT22;65305;52.870;13.660;2023-04-19T14:36:43;8.70;64.20
76470;DHT22;65305;52.870;13.660;2023-04-19T14:39:09;8.70;64.30
76470;DHT22;65305;52.870;13.660;2023-04-19T14:41:35;8.70;64.50
76470;DHT22;65305;52.870;13.660;2023-04-19T14:44:02;8.70;64.60
76470;DHT22;65305;52.870;13.660;2023-04-19T14:46:30;8.70;64.70
76470;DHT22;65305;52.870;13.660;2023-04-19T14:48:57;8.80;64.80
76470;DHT22;65305;52.870;13.660;2023-04-19T14:51:29;8.70;64.90
76470;DHT22;65305;52.870;13.660;2023-04-19T14:53:57;8.70;64.90
76470;DHT22;65305;52.870;13.660;2023-04-19T14:56:23;8.80;64.90
76470;DHT22;65305;52.870;13.660;2023-04-19T14:58:52;8.70;65.00
76470;DHT22;65305;52.870;13.660;2023-04-19T15:01:19;8.70;65.00
76470;DHT22;65305;52.870;13.660;2023-04-19T15:03:48;8.70;65.10
76470;DHT22;65305;52.870;13.660;2023-04-19T15:06:15;8.70;65.10
76470;DHT22;65305;52.870;13.660;2023-04-19T15:08:41;8.70;65.20
76470;DHT22;65305;52.870;13.660;2023-04-19T15:11:08;8.70;65.20
76470;DHT22;65305;52.870;13.660;2023-04-19T15:13:34;8.70;65.30
76470;DHT22;65305;52.870;13.660;2023-04-19T15:16:01;8.70;65.30
76470;DHT22;65305;52.870;13.660;2023-04-19T15:18:28;8.70;65.40
76470;DHT22;65305;52.870;13.660;2023-04-19T15:20:55;8.70;65.50
76470;DHT22;65305;52.870;13.660;2023-04-19T15:23:22;8.70;65.50
76470;DHT22;65305;52.870;13.660;2023-04-19T15:25:49;8.70;65.50
76470;DHT22;65305;52.870;13.660;2023-04-19T15:28:16;8.70;65.60
76470;DHT22;65305;52.870;13.660;2023-04-19T15:30:42;8.70;65.60
76470;DHT22;65305;52.870;13.660;2023-04-19T15:33:09;8.70;65.70
76470;DHT22;65305;52.870;13.660;2023-04-19T15:35:36;8.60;65.70
76470;DHT22;65305;52.870;13.660;2023-04-19T15:38:02;8.70;65.80
76470;DHT22;65305;52.870;13.660;2023-04-19T15:40:29;8.70;65.80
76470;DHT22;65305;52.870;13.660;2023-04-19T15:42:55;8.70;65.90
76470;DHT22;65305;52.870;13.660;2023-04-19T15:45:22;8.70;65.90
76470;DHT22;65305;52.870;13.660;2023-04-19T15:47:48;8.70;65.90
76470;DHT22;65305;52.870;13.660;2023-04-19T15:50:15;8.70;65.90
76470;DHT22;65305;52.870;13.660;2023-04-19T15:52:41;8.70;65.90